Time;durP1;ratioP1;P1;durP2;ratioP2;P2;SDS_P1;SDS_P2;PMS_P1;PMS_P2;Temp;Humidity;BMP_temperature;BMP_pressure;BME280_temperature;BME280_humidity;BME280_pressure;Samples;Min_cycle;Max_cycle;Signal;HPM_P1;HPM_P2
2022/09/19 00:01:11;;;;;;;;;;;9.40;99.90;;;;;;5060531;28;19940;-75
2022/09/19 00:03:38;;;;;;;;;;;9.40;99.90;;;;;;5058991;28;19967;-75
2022/09/19 00:06:05;;;;;;;;;;;9.50;99.90;;;;;;5054794;28;19933;-75
2022/09/19 00:08:32;;;;;;;;;;;9.50;99.90;;;;;;5059838;28;20384;-75
2022/09/19 00:11:02;;;;;;;;;;;9.50;99.90;;;;;;5062133;28;20285;-76
2022/09/19 00:13:29;;;;;;;;;;;9.60;99.90;;;;;;5059121;28;20286;-76
2022/09/19 00:15:56;;;;;;;;;;;9.60;99.90;;;;;;5058996;28;19936;-76
2022/09/19 00:18:23;;;;;;;;;;;9.60;99.90;;;;;;5059411;28;19994;-76
2022/09/19 00:20:50;;;;;;;;;;;9.60;99.90;;;;;;5059769;28;20206;-75
2022/09/19 00:26:05;;;;;;;;;;;9.60;99.90;;;;;;5040307;28;20094;-77
2022/09/19 00:28:33;;;;;;;;;;;9.60;99.90;;;;;;5018563;28;19977;-78
2022/09/19 00:31:00;;;;;;;;;;;9.70;99.90;;;;;;5020405;28;19933;-77
2022/09/19 00:33:30;;;;;;;;;;;9.70;99.90;;;;;;5018185;28;20374;-77
2022/09/19 00:35:57;;;;;;;;;;;9.70;99.90;;;;;;4999963;28;19940;-76
2022/09/19 00:38:25;;;;;;;;;;;9.70;99.90;;;;;;5018259;28;20451;-77
2022/09/19 00:40:52;;;;;;;;;;;9.70;99.90;;;;;;5005163;28;19955;-76
2022/09/19 00:43:20;;;;;;;;;;;9.70;99.90;;;;;;5019415;28;19991;-77
2022/09/19 00:45:47;;;;;;;;;;;9.70;99.90;;;;;;5004924;28;19933;-77
2022/09/19 00:48:15;;;;;;;;;;;9.70;99.90;;;;;;5024426;28;19933;-76
2022/09/19 00:50:43;;;;;;;;;;;9.70;99.90;;;;;;5023381;28;19933;-76
2022/09/19 00:53:12;;;;;;;;;;;9.60;99.90;;;;;;5022637;28;19988;-76
2022/09/19 00:55:40;;;;;;;;;;;9.60;99.90;;;;;;5003089;28;19952;-76
2022/09/19 00:58:10;;;;;;;;;;;9.70;99.90;;;;;;5022071;28;19933;-76
2022/09/19 01:00:39;;;;;;;;;;;9.70;99.90;;;;;;5022276;28;19936;-78
2022/09/19 01:03:07;;;;;;;;;;;9.70;99.90;;;;;;5001642;28;19929;-77
2022/09/19 01:05:42;;;;;;;;;;;9.70;99.90;;;;;;5022501;28;19947;-77
2022/09/19 01:08:19;;;;;;;;;;;9.70;99.90;;;;;;5025657;28;19955;-76
2022/09/19 01:10:54;;;;;;;;;;;9.70;99.90;;;;;;5024125;28;20011;-76
2022/09/19 01:13:24;;;;;;;;;;;9.70;99.90;;;;;;5039239;28;19951;-76
2022/09/19 01:15:55;;;;;;;;;;;9.60;99.90;;;;;;5032124;28;19941;-76
2022/09/19 01:18:24;;;;;;;;;;;9.60;99.90;;;;;;5005446;28;20024;-77
2022/09/19 01:23:57;;;;;;;;;;;9.50;99.90;;;;;;4938942;28;1757239;-75
2022/09/19 01:26:36;;;;;;;;;;;9.40;99.90;;;;;;5001169;28;20268;-76
2022/09/19 01:29:07;;;;;;;;;;;9.50;99.90;;;;;;5004422;28;20019;-76
2022/09/19 01:31:36;;;;;;;;;;;9.50;99.90;;;;;;5002847;28;19933;-76
2022/09/19 01:34:05;;;;;;;;;;;9.50;99.90;;;;;;5002176;28;19933;-76
2022/09/19 01:36:38;;;;;;;;;;;9.60;99.90;;;;;;5018014;28;20027;-77
2022/09/19 01:39:07;;;;;;;;;;;9.70;99.90;;;;;;5018452;28;19960;-77
2022/09/19 01:41:47;;;;;;;;;;;9.70;99.90;;;;;;5002407;28;20057;-76
2022/09/19 01:44:18;;;;;;;;;;;9.70;99.90;;;;;;5001963;28;19933;-77
2022/09/19 01:46:52;;;;;;;;;;;9.70;99.90;;;;;;5014739;28;19997;-76
2022/09/19 01:49:26;;;;;;;;;;;9.70;99.90;;;;;;5001757;28;20386;-76
2022/09/19 01:51:56;;;;;;;;;;;9.70;99.90;;;;;;4996689;28;20413;-76
2022/09/19 01:54:28;;;;;;;;;;;9.70;99.90;;;;;;5018636;28;19944;-76
2022/09/19 01:57:05;;;;;;;;;;;9.60;99.90;;;;;;4999484;28;19940;-76
2022/09/19 01:59:43;;;;;;;;;;;9.50;99.90;;;;;;5002566;28;20434;-75
2022/09/19 02:02:15;;;;;;;;;;;9.50;99.90;;;;;;5000293;28;19933;-76
2022/09/19 02:04:45;;;;;;;;;;;9.40;99.90;;;;;;5002909;28;19929;-77
2022/09/19 02:07:16;;;;;;;;;;;9.40;99.90;;;;;;5000932;28;20426;-77
2022/09/19 02:09:44;;;;;;;;;;;9.30;99.90;;;;;;5000763;28;19952;-77
2022/09/19 02:12:16;;;;;;;;;;;9.30;99.90;;;;;;4999517;28;19933;-77
2022/09/19 02:14:55;;;;;;;;;;;9.30;99.90;;;;;;5003781;28;20052;-77
2022/09/19 02:17:31;;;;;;;;;;;9.30;99.90;;;;;;5004408;28;20115;-76
2022/09/19 02:19:59;;;;;;;;;;;9.20;99.90;;;;;;5018499;28;19929;-76
2022/09/19 02:22:29;;;;;;;;;;;9.30;99.90;;;;;;5003397;28;20413;-76
2022/09/19 02:24:58;;;;;;;;;;;9.30;99.90;;;;;;5005101;28;20428;-76
2022/09/19 02:27:28;;;;;;;;;;;9.20;99.90;;;;;;5005318;28;19929;-76
2022/09/19 02:29:58;;;;;;;;;;;9.20;99.90;;;;;;5005468;28;19987;-76
2022/09/19 02:32:30;;;;;;;;;;;9.20;99.90;;;;;;5004005;28;19960;-77
2022/09/19 02:34:57;;;;;;;;;;;9.20;99.90;;;;;;5019649;28;20040;-76
2022/09/19 02:37:27;;;;;;;;;;;9.20;99.90;;;;;;5003046;28;20320;-76
2022/09/19 02:39:59;;;;;;;;;;;9.30;99.90;;;;;;5002199;28;19933;-77
2022/09/19 02:42:43;;;;;;;;;;;9.20;99.90;;;;;;5001736;28;20329;-76
2022/09/19 02:45:16;;;;;;;;;;;9.20;99.90;;;;;;5003246;28;19976;-76
2022/09/19 02:47:54;;;;;;;;;;;9.20;99.90;;;;;;5002663;28;19956;-77
2022/09/19 02:50:24;;;;;;;;;;;9.20;99.90;;;;;;5002356;28;19941;-76
2022/09/19 02:52:54;;;;;;;;;;;9.30;99.90;;;;;;5002272;28;19974;-77
2022/09/19 02:55:25;;;;;;;;;;;9.30;99.90;;;;;;5002915;28;19932;-77
2022/09/19 02:57:55;;;;;;;;;;;9.30;99.90;;;;;;5002098;28;20001;-77
2022/09/19 03:00:24;;;;;;;;;;;9.40;99.90;;;;;;5001394;28;19939;-77
2022/09/19 03:02:56;;;;;;;;;;;9.40;99.90;;;;;;4998559;28;20057;-77
2022/09/19 03:05:25;;;;;;;;;;;9.40;99.90;;;;;;5002127;28;20032;-77
2022/09/19 03:07:55;;;;;;;;;;;9.30;99.90;;;;;;5003246;28;19933;-78
2022/09/19 03:10:24;;;;;;;;;;;9.50;99.90;;;;;;5015702;28;19925;-77
2022/09/19 03:13:11;;;;;;;;;;;9.40;99.90;;;;;;5020059;28;19932;-77
2022/09/19 03:15:44;;;;;;;;;;;9.40;99.90;;;;;;5001683;28;19933;-77
2022/09/19 03:18:13;;;;;;;;;;;9.30;99.90;;;;;;5000346;28;20452;-76
2022/09/19 03:20:40;;;;;;;;;;;9.30;99.90;;;;;;5015869;28;19941;-74
2022/09/19 03:23:09;;;;;;;;;;;9.30;99.90;;;;;;5002152;28;20422;-76
2022/09/19 03:25:36;;;;;;;;;;;9.30;99.90;;;;;;4999640;28;19933;-75
2022/09/19 03:28:03;;;;;;;;;;;9.40;99.90;;;;;;5019511;28;19941;-75
2022/09/19 03:30:31;;;;;;;;;;;9.40;99.90;;;;;;5001900;28;19967;-76
2022/09/19 03:33:00;;;;;;;;;;;9.40;99.90;;;;;;5000969;28;19933;-76
2022/09/19 03:35:27;;;;;;;;;;;9.40;99.90;;;;;;5000863;28;20345;-77
2022/09/19 03:37:54;;;;;;;;;;;9.40;99.90;;;;;;5002693;28;19944;-76
2022/09/19 03:40:23;;;;;;;;;;;9.50;99.90;;;;;;5020425;28;19933;-76
2022/09/19 03:42:51;;;;;;;;;;;9.50;99.90;;;;;;5019726;28;19975;-76
2022/09/19 03:45:19;;;;;;;;;;;9.50;99.90;;;;;;5005060;28;20347;-76
2022/09/19 03:47:47;;;;;;;;;;;9.40;99.90;;;;;;5005259;28;19978;-77
2022/09/19 03:50:15;;;;;;;;;;;9.40;99.90;;;;;;5001931;28;19933;-76
2022/09/19 03:52:50;;;;;;;;;;;9.30;99.90;;;;;;5000944;28;19939;-76
2022/09/19 03:55:18;;;;;;;;;;;9.20;99.90;;;;;;5002368;28;19940;-78
2022/09/19 03:57:46;;;;;;;;;;;9.20;99.90;;;;;;5001933;28;19932;-76
2022/09/19 04:00:14;;;;;;;;;;;9.10;99.90;;;;;;5002419;28;19925;-77
2022/09/19 04:02:43;;;;;;;;;;;9.00;99.90;;;;;;5020419;28;19939;-77
2022/09/19 04:05:13;;;;;;;;;;;9.00;99.90;;;;;;5003739;28;19939;-78
2022/09/19 04:07:42;;;;;;;;;;;9.00;99.90;;;;;;5004202;28;19933;-78
2022/09/19 04:10:09;;;;;;;;;;;9.00;99.90;;;;;;5017092;28;19940;-79
2022/09/19 04:12:37;;;;;;;;;;;9.00;99.90;;;;;;5001944;28;20050;-77
2022/09/19 04:15:05;;;;;;;;;;;8.90;99.90;;;;;;5021763;28;19963;-78
2022/09/19 04:17:32;;;;;;;;;;;8.90;99.90;;;;;;5003866;28;19934;-77
2022/09/19 04:20:05;;;;;;;;;;;8.80;99.90;;;;;;5003692;28;19972;-78
2022/09/19 04:22:45;;;;;;;;;;;8.80;99.90;;;;;;5002606;28;19944;-77
2022/09/19 04:25:16;;;;;;;;;;;8.80;99.90;;;;;;5003409;28;19940;-75
2022/09/19 04:28:02;;;;;;;;;;;8.90;99.90;;;;;;5019505;28;19940;-76
2022/09/19 04:30:29;;;;;;;;;;;9.00;99.90;;;;;;5003058;28;19951;-76
2022/09/19 04:33:03;;;;;;;;;;;9.00;99.90;;;;;;5000404;28;20741;-77
2022/09/19 04:35:30;;;;;;;;;;;9.10;99.90;;;;;;5005077;28;19933;-77
2022/09/19 04:37:58;;;;;;;;;;;9.20;99.90;;;;;;5000950;28;19940;-76
2022/09/19 04:40:24;;;;;;;;;;;9.20;99.90;;;;;;5002171;28;19944;-76
2022/09/19 04:42:51;;;;;;;;;;;9.30;99.90;;;;;;5001661;28;19929;-77
2022/09/19 04:45:20;;;;;;;;;;;9.30;99.90;;;;;;5019477;28;19932;-77
2022/09/19 04:48:09;;;;;;;;;;;9.30;99.90;;;;;;5016865;28;19999;-77
2022/09/19 04:50:36;;;;;;;;;;;9.10;99.90;;;;;;5002616;28;19983;-78
2022/09/19 04:53:05;;;;;;;;;;;9.30;99.90;;;;;;5015035;28;19929;-77
2022/09/19 04:55:32;;;;;;;;;;;9.30;99.90;;;;;;5000115;28;20492;-77
2022/09/19 04:58:00;;;;;;;;;;;9.30;99.90;;;;;;4999932;28;19980;-77
2022/09/19 05:00:40;;;;;;;;;;;9.30;99.90;;;;;;5001779;28;20241;-77
2022/09/19 05:03:16;;;;;;;;;;;9.30;99.90;;;;;;5015106;28;20653;-77
2022/09/19 05:05:44;;;;;;;;;;;9.20;99.90;;;;;;5001149;28;19929;-77
2022/09/19 05:08:19;;;;;;;;;;;9.20;99.90;;;;;;5001669;28;20375;-77
2022/09/19 05:10:46;;;;;;;;;;;9.10;99.90;;;;;;5024741;28;19925;-78
2022/09/19 05:13:14;;;;;;;;;;;9.10;99.90;;;;;;5010535;28;19929;-79
2022/09/19 05:15:41;;;;;;;;;;;9.10;99.90;;;;;;5023833;28;20366;-78
2022/09/19 05:18:09;;;;;;;;;;;9.00;99.90;;;;;;5025826;28;19929;-77
2022/09/19 05:20:36;;;;;;;;;;;9.00;99.90;;;;;;5065176;22;19928;-78
2022/09/19 05:23:03;;;;;;;;;;;9.00;99.90;;;;;;5031964;28;19924;-76
2022/09/19 05:25:32;;;;;;;;;;;9.00;99.90;;;;;;5030410;28;19933;-76
2022/09/19 05:28:04;;;;;;;;;;;9.00;99.90;;;;;;5034677;28;19928;-76
2022/09/19 05:30:32;;;;;;;;;;;8.90;99.90;;;;;;5032054;28;20445;-77
2022/09/19 05:32:59;;;;;;;;;;;8.90;99.90;;;;;;5031731;28;20298;-76
2022/09/19 05:35:35;;;;;;;;;;;8.90;99.90;;;;;;5032146;28;20023;-75
2022/09/19 05:38:20;;;;;;;;;;;8.90;99.90;;;;;;5046900;28;19944;-77
2022/09/19 05:41:07;;;;;;;;;;;9.10;99.90;;;;;;5045718;28;19932;-77
2022/09/19 05:43:43;;;;;;;;;;;8.90;99.90;;;;;;5049648;28;19970;-78
2022/09/19 05:46:10;;;;;;;;;;;8.90;99.90;;;;;;5041512;28;20410;-78
2022/09/19 05:48:38;;;;;;;;;;;9.00;99.90;;;;;;5048464;28;19937;-78
2022/09/19 05:51:06;;;;;;;;;;;9.00;99.90;;;;;;5026829;28;19966;-77
2022/09/19 05:56:35;;;;;;;;;;;9.10;99.90;;;;;;5033173;28;20381;-77
2022/09/19 05:59:04;;;;;;;;;;;9.20;99.90;;;;;;5029351;28;20386;-77
2022/09/19 06:01:32;;;;;;;;;;;9.30;99.90;;;;;;5047100;28;19929;-78
2022/09/19 06:04:01;;;;;;;;;;;9.40;99.90;;;;;;5038758;28;19933;-78
2022/09/19 06:06:29;;;;;;;;;;;9.50;99.90;;;;;;5033869;28;19925;-76
2022/09/19 06:08:57;;;;;;;;;;;9.50;99.90;;;;;;5029796;28;20424;-77
2022/09/19 06:11:25;;;;;;;;;;;9.60;99.90;;;;;;5052905;28;19955;-79
2022/09/19 06:16:39;;;;;;;;;;;10.00;99.90;;;;;;5021201;28;19936;-78
2022/09/19 06:19:24;;;;;;;;;;;10.80;99.90;;;;;;5048889;28;20382;-78
2022/09/19 06:21:57;;;;;;;;;;;12.30;99.90;;;;;;5058906;22;19970;-77
2022/09/19 06:24:25;;;;;;;;;;;12.60;99.90;;;;;;5043193;28;19979;-78
2022/09/19 06:26:53;;;;;;;;;;;13.20;99.90;;;;;;5011706;28;19925;-78
2022/09/19 06:29:21;;;;;;;;;;;13.80;99.90;;;;;;5029186;28;20400;-78
2022/09/19 06:32:09;;;;;;;;;;;14.30;99.90;;;;;;5021261;28;19999;-76
2022/09/19 06:34:40;;;;;;;;;;;14.80;99.90;;;;;;5012837;28;20043;-77
2022/09/19 06:37:08;;;;;;;;;;;15.30;99.90;;;;;;5016841;28;19929;-78
2022/09/19 06:39:35;;;;;;;;;;;15.70;99.90;;;;;;5007674;28;19952;-79
2022/09/19 06:42:24;;;;;;;;;;;16.20;99.90;;;;;;5104310;22;19935;-77
2022/09/19 06:45:25;;;;;;;;;;;16.70;99.90;;;;;;5019557;28;19925;-78
2022/09/19 06:48:06;;;;;;;;;;;16.90;99.90;;;;;;5032314;28;20018;-76
2022/09/19 06:50:59;;;;;;;;;;;17.20;99.90;;;;;;5000639;28;19929;-76
2022/09/19 06:53:28;;;;;;;;;;;17.50;99.90;;;;;;5014684;28;19936;-77
2022/09/19 06:55:59;;;;;;;;;;;17.80;99.90;;;;;;5015253;28;19932;-78
2022/09/19 06:58:26;;;;;;;;;;;18.00;99.90;;;;;;5015089;28;20320;-79
2022/09/19 07:00:56;;;;;;;;;;;18.10;99.90;;;;;;5015880;28;19925;-80
2022/09/19 07:03:24;;;;;;;;;;;18.40;99.90;;;;;;5016316;28;19929;-79
2022/09/19 07:06:01;;;;;;;;;;;18.60;99.90;;;;;;5013780;28;19932;-77
2022/09/19 07:08:40;;;;;;;;;;;18.80;99.90;;;;;;5014057;28;19928;-78
2022/09/19 07:11:09;;;;;;;;;;;18.70;99.90;;;;;;5014332;28;19936;-79
2022/09/19 07:13:40;;;;;;;;;;;18.00;99.90;;;;;;5013451;28;19925;-78
2022/09/19 07:16:11;;;;;;;;;;;17.40;99.90;;;;;;5010998;28;19933;-78
2022/09/19 07:18:38;;;;;;;;;;;17.00;99.90;;;;;;5005013;28;19929;-79
2022/09/19 07:21:28;;;;;;;;;;;16.70;99.90;;;;;;4981181;28;19934;-78
2022/09/19 07:23:58;;;;;;;;;;;16.50;99.90;;;;;;4995172;28;19944;-78
2022/09/19 07:26:44;;;;;;;;;;;16.30;99.90;;;;;;5002072;28;19989;-78
2022/09/19 07:29:11;;;;;;;;;;;16.20;99.90;;;;;;5006875;28;19983;-78
2022/09/19 07:31:40;;;;;;;;;;;16.20;99.90;;;;;;5010599;28;19928;-78
2022/09/19 07:34:08;;;;;;;;;;;16.10;99.90;;;;;;5007197;28;20598;-78
2022/09/19 07:36:44;;;;;;;;;;;15.90;99.90;;;;;;5019287;28;19929;-78
2022/09/19 07:39:11;;;;;;;;;;;15.60;99.90;;;;;;5004755;28;19932;-79
2022/09/19 07:41:58;;;;;;;;;;;15.50;99.90;;;;;;5020530;28;19987;-76
2022/09/19 07:44:45;;;;;;;;;;;15.40;99.90;;;;;;5020307;28;19936;-75
2022/09/19 07:47:32;;;;;;;;;;;15.50;99.90;;;;;;5021159;28;19947;-77
2022/09/19 07:50:25;;;;;;;;;;;15.70;99.90;;;;;;5000159;28;20036;-77
2022/09/19 07:53:00;;;;;;;;;;;16.10;99.90;;;;;;5003838;28;19925;-77
2022/09/19 07:55:30;;;;;;;;;;;16.60;99.90;;;;;;5002066;28;20071;-77
2022/09/19 07:57:58;;;;;;;;;;;17.10;99.90;;;;;;5018004;28;19940;-77
2022/09/19 08:00:42;;;;;;;;;;;17.50;99.90;;;;;;5006979;28;20342;-77
2022/09/19 08:03:15;;;;;;;;;;;18.00;99.90;;;;;;5020521;28;19935;-77
2022/09/19 08:05:43;;;;;;;;;;;18.50;99.90;;;;;;5019656;28;20380;-78
2022/09/19 08:08:12;;;;;;;;;;;19.00;99.90;;;;;;5007365;28;19933;-77
2022/09/19 08:10:40;;;;;;;;;;;19.30;99.90;;;;;;5000692;28;19983;-77
2022/09/19 08:13:08;;;;;;;;;;;19.20;99.90;;;;;;5001650;28;19988;-77
2022/09/19 08:15:35;;;;;;;;;;;19.00;99.90;;;;;;5001038;28;19929;-77
2022/09/19 08:18:04;;;;;;;;;;;18.80;99.90;;;;;;4999830;28;19983;-77
2022/09/19 08:20:35;;;;;;;;;;;18.40;99.90;;;;;;5006879;28;20414;-77
2022/09/19 08:23:03;;;;;;;;;;;18.30;99.90;;;;;;5015004;28;19926;-77
2022/09/19 08:25:32;;;;;;;;;;;18.10;99.90;;;;;;5004248;28;19945;-78
2022/09/19 08:27:59;;;;;;;;;;;17.90;99.90;;;;;;5002848;28;20001;-77
2022/09/19 08:30:27;;;;;;;;;;;17.50;99.90;;;;;;5021213;28;19929;-77
2022/09/19 08:32:55;;;;;;;;;;;17.20;99.90;;;;;;5011833;28;20020;-78
2022/09/19 08:35:23;;;;;;;;;;;17.20;99.90;;;;;;5011670;28;19929;-77
2022/09/19 08:37:55;;;;;;;;;;;17.60;99.90;;;;;;5012288;28;20055;-78
2022/09/19 08:40:26;;;;;;;;;;;17.80;99.90;;;;;;5012452;28;19925;-78
2022/09/19 08:43:06;;;;;;;;;;;17.70;99.90;;;;;;5011825;28;20397;-78
2022/09/19 08:45:51;;;;;;;;;;;17.50;99.90;;;;;;5012857;28;20028;-78
2022/09/19 08:48:21;;;;;;;;;;;17.30;99.90;;;;;;5005899;28;20004;-77
2022/09/19 08:50:54;;;;;;;;;;;17.30;99.90;;;;;;5012472;28;19925;-77
2022/09/19 08:53:25;;;;;;;;;;;17.40;99.90;;;;;;5010678;28;20385;-78
2022/09/19 08:55:54;;;;;;;;;;;17.70;99.90;;;;;;4998264;28;20416;-78
2022/09/19 08:58:23;;;;;;;;;;;18.00;99.90;;;;;;5008361;28;19966;-77
2022/09/19 09:01:17;;;;;;;;;;;18.10;99.90;;;;;;5024386;28;20024;-77
2022/09/19 09:04:23;;;;;;;;;;;18.10;99.90;;;;;;5014690;28;19932;-78
2022/09/19 09:06:59;;;;;;;;;;;17.90;99.90;;;;;;5014067;28;19932;-77
2022/09/19 09:09:36;;;;;;;;;;;17.80;99.90;;;;;;5013506;28;19932;-78
2022/09/19 09:12:09;;;;;;;;;;;17.60;99.90;;;;;;5028652;28;19925;-78
2022/09/19 09:14:46;;;;;;;;;;;17.60;99.90;;;;;;5008502;28;20412;-76
2022/09/19 09:17:18;;;;;;;;;;;17.80;99.90;;;;;;5013696;28;19967;-76
2022/09/19 09:19:58;;;;;;;;;;;17.90;99.90;;;;;;5015947;28;20052;-76
2022/09/19 09:22:30;;;;;;;;;;;17.90;99.90;;;;;;5015754;28;19929;-78
2022/09/19 09:25:29;;;;;;;;;;;17.90;99.90;;;;;;5029845;28;19925;-77
2022/09/19 09:28:02;;;;;;;;;;;17.80;99.90;;;;;;5014848;28;19925;-77
2022/09/19 09:30:39;;;;;;;;;;;17.60;99.90;;;;;;5003555;28;19956;-77
2022/09/19 09:33:16;;;;;;;;;;;17.50;99.90;;;;;;4996556;28;19929;-77
2022/09/19 09:35:45;;;;;;;;;;;17.60;99.90;;;;;;5008271;28;19951;-75
2022/09/19 09:38:21;;;;;;;;;;;17.90;99.90;;;;;;5016662;28;19983;-76
2022/09/19 09:43:45;;;;;;;;;;;17.90;99.90;;;;;;5015639;28;20016;-77
2022/09/19 09:46:24;;;;;;;;;;;18.00;99.90;;;;;;5016437;28;19939;-77
2022/09/19 09:48:52;;;;;;;;;;;18.10;99.90;;;;;;5026624;28;19925;-77
2022/09/19 09:51:25;;;;;;;;;;;18.10;99.90;;;;;;5024691;28;19948;-77
2022/09/19 09:54:01;;;;;;;;;;;18.00;99.90;;;;;;5012503;28;20078;-77
2022/09/19 09:56:32;;;;;;;;;;;18.00;99.90;;;;;;4995861;28;19929;-77
2022/09/19 09:59:05;;;;;;;;;;;18.30;99.90;;;;;;4996159;28;19936;-77
2022/09/19 10:04:30;;;;;;;;;;;18.40;99.90;;;;;;5008754;28;19921;-77
2022/09/19 10:07:14;;;;;;;;;;;18.30;99.90;;;;;;5016141;28;20454;-77
2022/09/19 10:09:48;;;;;;;;;;;18.30;99.90;;;;;;5012691;28;19929;-77
2022/09/19 10:12:23;;;;;;;;;;;18.30;99.90;;;;;;5007010;28;20074;-77
2022/09/19 10:14:54;;;;;;;;;;;18.30;99.90;;;;;;5013529;28;19952;-77
2022/09/19 10:17:45;;;;;;;;;;;18.30;99.90;;;;;;5029728;28;19936;-77
2022/09/19 10:20:19;;;;;;;;;;;18.40;99.90;;;;;;5005781;28;19929;-78
2022/09/19 10:22:47;;;;;;;;;;;18.50;99.90;;;;;;5017784;28;19929;-78
2022/09/19 10:25:16;;;;;;;;;;;18.60;99.90;;;;;;5011820;28;20025;-80
2022/09/19 10:27:45;;;;;;;;;;;18.50;99.90;;;;;;5014373;28;19994;-77
2022/09/19 10:30:35;;;;;;;;;;;18.30;99.90;;;;;;5006683;28;19933;-77
2022/09/19 10:33:17;;;;;;;;;;;18.10;99.90;;;;;;5006888;28;19987;-77
2022/09/19 10:35:45;;;;;;;;;;;18.00;99.90;;;;;;5010504;28;19925;-77
2022/09/19 10:38:15;;;;;;;;;;;17.80;99.90;;;;;;5009805;28;19948;-77
2022/09/19 10:40:51;;;;;;;;;;;17.80;99.90;;;;;;5016808;28;19940;-77
2022/09/19 10:43:26;;;;;;;;;;;17.70;99.90;;;;;;5007943;28;20034;-77
2022/09/19 10:45:52;;;;;;;;;;;17.70;99.90;;;;;;5006848;28;19965;-76
2022/09/19 10:48:23;;;;;;;;;;;17.80;99.90;;;;;;5004797;28;20563;-77
2022/09/19 10:50:50;;;;;;;;;;;18.00;99.90;;;;;;5140094;22;19936;-76
2022/09/19 10:53:22;;;;;;;;;;;18.00;99.90;;;;;;5034393;28;20019;-76
2022/09/19 10:55:50;;;;;;;;;;;18.00;99.90;;;;;;5059301;28;19928;-76
2022/09/19 10:58:18;;;;;;;;;;;18.20;99.90;;;;;;5538278;23;19935;-77
2022/09/19 11:00:52;;;;;;;;;;;18.20;99.90;;;;;;5036306;28;20393;-76
2022/09/19 11:03:23;;;;;;;;;;;18.30;99.90;;;;;;5022132;28;20424;-77
2022/09/19 11:06:02;;;;;;;;;;;18.50;99.90;;;;;;5036677;28;19944;-77
2022/09/19 11:08:30;;;;;;;;;;;18.80;99.90;;;;;;5021327;28;19951;-76
2022/09/19 11:10:59;;;;;;;;;;;19.00;99.90;;;;;;5065992;23;19935;-76
2022/09/19 11:13:34;;;;;;;;;;;19.00;99.90;;;;;;5073427;28;19982;-76
2022/09/19 11:16:11;;;;;;;;;;;19.00;99.90;;;;;;5073307;28;19924;-77
2022/09/19 11:18:49;;;;;;;;;;;19.10;99.90;;;;;;5073902;28;19928;-77
2022/09/19 11:21:25;;;;;;;;;;;19.30;99.90;;;;;;5074169;28;19928;-76
2022/09/19 11:24:06;;;;;;;;;;;19.30;99.90;;;;;;5072577;28;20439;-76
2022/09/19 11:26:39;;;;;;;;;;;19.00;99.90;;;;;;5057128;28;19975;-77
2022/09/19 11:29:19;;;;;;;;;;;18.60;99.90;;;;;;5073009;28;19982;-77
2022/09/19 11:32:03;;;;;;;;;;;18.10;99.90;;;;;;5072338;28;20408;-77
2022/09/19 11:34:36;;;;;;;;;;;17.60;99.90;;;;;;5072596;28;19928;-76
2022/09/19 11:37:07;;;;;;;;;;;;;;;;;;5067681;28;19965;-77
2022/09/19 11:39:42;;;;;;;;;;;16.30;99.90;;;;;;5083090;28;19973;-76
2022/09/19 11:42:17;;;;;;;;;;;15.60;99.90;;;;;;5052257;28;20047;-77
2022/09/19 11:44:51;;;;;;;;;;;14.90;99.90;;;;;;5066630;28;19928;-76
2022/09/19 11:47:36;;;;;;;;;;;14.10;99.90;;;;;;5053136;28;20372;-77
2022/09/19 11:50:13;;;;;;;;;;;14.00;99.90;;;;;;5052333;28;19971;-76
2022/09/19 11:52:47;;;;;;;;;;;14.00;99.90;;;;;;5052335;28;19924;-76
2022/09/19 11:55:27;;;;;;;;;;;14.20;99.90;;;;;;5052238;28;19925;-77
2022/09/19 11:58:00;;;;;;;;;;;14.30;99.90;;;;;;5051878;28;19972;-76
2022/09/19 12:00:28;;;;;;;;;;;14.30;99.90;;;;;;5052884;28;19971;-76
2022/09/19 12:03:16;;;;;;;;;;;14.40;99.90;;;;;;5052512;28;19925;-76
2022/09/19 12:05:56;;;;;;;;;;;14.40;99.90;;;;;;5052767;28;19928;-77
2022/09/19 12:08:29;;;;;;;;;;;14.50;99.90;;;;;;5066133;28;20405;-77
2022/09/19 12:11:07;;;;;;;;;;;14.50;99.90;;;;;;5054987;28;19931;-77
2022/09/19 12:13:42;;;;;;;;;;;14.70;99.90;;;;;;5071553;28;20002;-77
2022/09/19 12:16:12;;;;;;;;;;;14.90;99.90;;;;;;5054542;28;19928;-78
2022/09/19 12:18:43;;;;;;;;;;;15.00;99.90;;;;;;5068881;28;19931;-78
2022/09/19 12:21:12;;;;;;;;;;;15.10;99.90;;;;;;5060590;28;19928;-78
2022/09/19 12:26:36;;;;;;;;;;;15.10;99.90;;;;;;5071203;28;19935;-78
2022/09/19 12:29:07;;;;;;;;;;;15.10;99.90;;;;;;5069068;28;20600;-78
2022/09/19 12:31:36;;;;;;;;;;;15.10;99.90;;;;;;5067677;28;19954;-77
2022/09/19 12:34:11;;;;;;;;;;;15.30;99.90;;;;;;5052522;28;19962;-78
2022/09/19 12:36:43;;;;;;;;;;;15.60;99.90;;;;;;5068348;28;19944;-78
2022/09/19 12:39:12;;;;;;;;;;;15.70;99.90;;;;;;5059156;28;19924;-78
2022/09/19 12:41:43;;;;;;;;;;;15.80;99.90;;;;;;5054934;28;20379;-77
2022/09/19 12:44:16;;;;;;;;;;;16.00;99.90;;;;;;5064059;28;19934;-78
2022/09/19 12:46:51;;;;;;;;;;;16.30;99.90;;;;;;5076967;28;19984;-80
2022/09/19 12:49:28;;;;;;;;;;;16.60;99.90;;;;;;5065909;28;19970;-80
2022/09/19 12:52:04;;;;;;;;;;;16.90;99.90;;;;;;5054764;28;19935;-79
2022/09/19 12:54:36;;;;;;;;;;;17.00;99.90;;;;;;5055788;28;19939;-79
2022/09/19 12:57:06;;;;;;;;;;;17.30;99.90;;;;;;5058888;28;19928;-79
2022/09/19 12:59:34;;;;;;;;;;;17.60;99.90;;;;;;5059872;28;19928;-80
2022/09/19 13:02:08;;;;;;;;;;;18.00;99.90;;;;;;5057979;28;19930;-80
2022/09/19 13:04:40;;;;;;;;;;;18.00;99.90;;;;;;5059630;28;19928;-79
2022/09/19 13:07:09;;;;;;;;;;;;;;;;;;5076561;28;19928;-79
2022/09/19 13:09:39;;;;;;;;;;;18.10;99.90;;;;;;5077145;28;20076;-80
2022/09/19 13:12:12;;;;;;;;;;;18.00;99.90;;;;;;5080046;28;20363;-78
2022/09/19 13:14:45;;;;;;;;;;;17.80;99.90;;;;;;5082210;28;19928;-78
2022/09/19 13:25:33;;;;;;;;;;;16.60;99.90;;;;;;5079070;28;19923;-78
2022/09/19 13:28:19;;;;;;;;;;;16.40;99.90;;;;;;5073164;28;19924;-77
2022/09/19 13:30:50;;;;;;;;;;;16.40;99.90;;;;;;5046592;28;19935;-81
2022/09/19 13:33:22;;;;;;;;;;;16.40;99.90;;;;;;5089759;28;20302;-80
2022/09/19 13:35:52;;;;;;;;;;;16.40;99.90;;;;;;5071576;28;19924;-77
2022/09/19 13:38:25;;;;;;;;;;;16.40;99.90;;;;;;5091065;28;20423;-78
2022/09/19 13:40:59;;;;;;;;;;;16.50;99.90;;;;;;5053832;28;19960;-79
2022/09/19 13:43:41;;;;;;;;;;;16.60;99.90;;;;;;5053527;28;19936;-78
2022/09/19 13:46:12;;;;;;;;;;;16.70;99.90;;;;;;5068108;28;19928;-78
2022/09/19 13:48:42;;;;;;;;;;;16.60;99.90;;;;;;5057206;28;19925;-76
2022/09/19 13:51:18;;;;;;;;;;;16.60;99.90;;;;;;5078193;28;20019;-77
2022/09/19 13:53:46;;;;;;;;;;;16.50;99.90;;;;;;5074440;28;19986;-78
2022/09/19 13:56:26;;;;;;;;;;;16.40;99.90;;;;;;5074287;28;19928;-77
2022/09/19 13:59:18;;;;;;;;;;;16.40;99.90;;;;;;5071988;28;19982;-77
2022/09/19 14:01:56;;;;;;;;;;;16.40;99.90;;;;;;5071958;28;20158;-77
2022/09/19 14:07:18;;;;;;;;;;;16.50;99.90;;;;;;5074211;28;19924;-77
2022/09/19 14:09:46;;;;;;;;;;;16.40;99.90;;;;;;5068637;28;19932;-78
2022/09/19 14:12:46;;;;;;;;;;;16.40;99.90;;;;;;5088447;28;20597;-78
2022/09/19 14:15:32;;;;;;;;;;;16.30;99.90;;;;;;5008638;28;20093;-78
2022/09/19 14:18:03;;;;;;;;;;;16.20;99.90;;;;;;4994601;28;20011;-77
2022/09/19 14:20:47;;;;;;;;;;;16.20;99.90;;;;;;5044839;28;19929;-78
2022/09/19 14:23:16;;;;;;;;;;;16.50;99.90;;;;;;5064914;28;19928;-77
2022/09/19 14:25:45;;;;;;;;;;;16.90;99.90;;;;;;5071672;28;19928;-77
2022/09/19 14:28:40;;;;;;;;;;;17.30;99.90;;;;;;5072894;28;20000;-78
2022/09/19 14:31:13;;;;;;;;;;;17.70;99.90;;;;;;5053971;28;19933;-78
2022/09/19 14:33:55;;;;;;;;;;;17.90;99.90;;;;;;5073833;28;19924;-77
2022/09/19 14:36:26;;;;;;;;;;;18.00;99.90;;;;;;5073344;28;20383;-77
2022/09/19 14:39:11;;;;;;;;;;;17.80;99.90;;;;;;5072921;28;20403;-78
2022/09/19 14:41:45;;;;;;;;;;;17.90;99.90;;;;;;5073108;28;19932;-77
2022/09/19 14:44:36;;;;;;;;;;;17.70;99.90;;;;;;5072734;28;19934;-78
2022/09/19 14:47:06;;;;;;;;;;;17.70;99.90;;;;;;5072997;28;19932;-77
2022/09/19 14:49:38;;;;;;;;;;;17.50;99.90;;;;;;5073025;28;19932;-78
2022/09/19 14:52:06;;;;;;;;;;;17.40;99.90;;;;;;5054661;28;20508;-78
2022/09/19 14:54:38;;;;;;;;;;;17.40;99.90;;;;;;5053276;28;19931;-77
2022/09/19 14:57:13;;;;;;;;;;;17.40;99.90;;;;;;5084063;28;19928;-78
2022/09/19 14:59:41;;;;;;;;;;;17.40;99.90;;;;;;5063868;28;19928;-77
2022/09/19 15:02:19;;;;;;;;;;;17.40;99.90;;;;;;5059948;28;19924;-78
2022/09/19 15:04:49;;;;;;;;;;;17.40;99.90;;;;;;5069119;28;19932;-77
2022/09/19 15:07:16;;;;;;;;;;;17.40;99.90;;;;;;5066350;28;19943;-76
2022/09/19 15:09:44;;;;;;;;;;;17.40;99.90;;;;;;5071890;28;19924;-77
2022/09/19 15:12:15;;;;;;;;;;;17.30;99.90;;;;;;5070224;28;19978;-77
2022/09/19 15:14:44;;;;;;;;;;;17.20;99.90;;;;;;5090173;28;19982;-77
2022/09/19 15:17:13;;;;;;;;;;;17.20;99.90;;;;;;5075190;28;19935;-78
2022/09/19 15:19:41;;;;;;;;;;;17.20;99.90;;;;;;5088081;28;20042;-79
2022/09/19 15:22:18;;;;;;;;;;;17.10;99.90;;;;;;5086635;28;19928;-79
2022/09/19 15:24:50;;;;;;;;;;;17.10;99.90;;;;;;5089226;28;19928;-77
2022/09/19 15:27:18;;;;;;;;;;;17.00;99.90;;;;;;5060596;28;19954;-77